Time;durP1;ratioP1;P1;durP2;ratioP2;P2;SDS_P1;SDS_P2;PMS_P1;PMS_P2;Temp;Humidity;BMP_temperature;BMP_pressure;BME280_temperature;BME280_humidity;BME280_pressure;Samples;Min_cycle;Max_cycle;Signal;HPM_P1;HPM_P2
2023/04/06 00:00:34;;;;;;;3.43;1.70;;;;;;;;;;5035782;28;20205;-40
2023/04/06 00:03:15;;;;;;;1.30;1.10;;;;;;;;;;5036306;28;20272;-39
2023/04/06 00:05:42;;;;;;;1.63;1.50;;;;;;;;;;5035935;28;20205;-40
2023/04/06 00:08:10;;;;;;;1.93;1.47;;;;;;;;;;5035668;28;20201;-39
2023/04/06 00:10:37;;;;;;;4.37;1.87;;;;;;;;;;5035929;28;20208;-40
2023/04/06 00:13:05;;;;;;;1.37;1.27;;;;;;;;;;5035626;28;20228;-40
2023/04/06 00:15:32;;;;;;;2.37;1.53;;;;;;;;;;5035367;28;20614;-39
2023/04/06 00:18:00;;;;;;;1.53;1.43;;;;;;;;;;5035674;28;20208;-39
2023/04/06 00:20:27;;;;;;;2.47;1.53;;;;;;;;;;5035728;28;20287;-40
2023/04/06 00:22:55;;;;;;;3.30;1.80;;;;;;;;;;5035263;28;20212;-39
2023/04/06 00:25:22;;;;;;;2.57;1.27;;;;;;;;;;5035224;28;20663;-40
2023/04/06 00:27:50;;;;;;;1.70;1.33;;;;;;;;;;5035285;28;20200;-40
2023/04/06 00:30:17;;;;;;;2.23;1.20;;;;;;;;;;5035090;28;20229;-40
2023/04/06 00:32:44;;;;;;;1.63;1.30;;;;;;;;;;5035360;28;20236;-39
2023/04/06 00:35:11;;;;;;;1.57;1.37;;;;;;;;;;5017463;28;20224;-40
2023/04/06 00:37:39;;;;;;;1.97;1.47;;;;;;;;;;5017565;28;20208;-40
2023/04/06 00:40:06;;;;;;;1.10;1.00;;;;;;;;;;5017284;28;20212;-40
2023/04/06 00:42:34;;;;;;;2.03;1.30;;;;;;;;;;5034949;28;20208;-40
2023/04/06 00:45:01;;;;;;;2.07;1.30;;;;;;;;;;5017548;28;20204;-42
2023/04/06 00:47:28;;;;;;;2.23;1.87;;;;;;;;;;5034806;28;20201;-40
2023/04/06 00:49:56;;;;;;;1.13;1.03;;;;;;;;;;5034890;28;20251;-40
2023/04/06 00:52:23;;;;;;;1.90;1.50;;;;;;;;;;5034883;28;20235;-39
2023/04/06 00:54:51;;;;;;;1.67;1.20;;;;;;;;;;5016689;28;20208;-40
2023/04/06 00:57:20;;;;;;;1.13;1.03;;;;;;;;;;5016968;28;20574;-40
2023/04/06 00:59:53;;;;;;;1.83;1.53;;;;;;;;;;5016973;28;20189;-39
2023/04/06 01:02:21;;;;;;;2.43;1.40;;;;;;;;;;5017076;28;20548;-39
2023/04/06 01:04:52;;;;;;;1.27;1.17;;;;;;;;;;5016906;28;20669;-40
2023/04/06 01:07:39;;;;;;;3.00;1.30;;;;;;;;;;5032957;28;20208;-40
2023/04/06 01:10:28;;;;;;;1.87;1.70;;;;;;;;;;5050068;28;20204;-40
2023/04/06 01:13:12;;;;;;;2.17;1.30;;;;;;;;;;5049878;28;20232;-39
2023/04/06 01:16:00;;;;;;;2.03;1.50;;;;;;;;;;5016952;28;20204;-39
2023/04/06 01:18:58;;;;;;;1.20;1.10;;;;;;;;;;5033181;28;20262;-39
2023/04/06 01:21:29;;;;;;;2.63;1.27;;;;;;;;;;5017002;28;20628;-39
2023/04/06 01:24:17;;;;;;;1.67;1.13;;;;;;;;;;5033819;28;20209;-40
2023/04/06 01:27:00;;;;;;;1.33;1.23;;;;;;;;;;5034554;28;20553;-39
2023/04/06 01:29:35;;;;;;;2.23;1.23;;;;;;;;;;5049276;28;20201;-40
2023/04/06 01:32:05;;;;;;;1.50;1.40;;;;;;;;;;5016870;28;20216;-39
2023/04/06 01:34:38;;;;;;;3.77;1.50;;;;;;;;;;5049860;28;20192;-40
2023/04/06 01:37:05;;;;;;;1.13;1.03;;;;;;;;;;5016663;28;20208;-40
2023/04/06 01:39:33;;;;;;;1.97;1.17;;;;;;;;;;5016548;28;20224;-39
2023/04/06 01:42:03;;;;;;;2.30;1.27;;;;;;;;;;5016393;28;20582;-40
2023/04/06 01:44:32;;;;;;;1.17;1.00;;;;;;;;;;5016542;28;20204;-40
2023/04/06 01:47:08;;;;;;;1.30;1.20;;;;;;;;;;5016323;28;20613;-40
2023/04/06 01:49:36;;;;;;;1.77;1.30;;;;;;;;;;5016636;28;20197;-41
2023/04/06 01:52:04;;;;;;;1.43;1.30;;;;;;;;;;5016385;28;20259;-40
2023/04/06 01:54:32;;;;;;;3.37;1.33;;;;;;;;;;5016329;28;20211;-40
2023/04/06 01:57:28;;;;;;;2.10;1.20;;;;;;;;;;5020442;28;20204;-40
2023/04/06 02:00:05;;;;;;;1.37;1.13;;;;;;;;;;5016572;28;20258;-40
2023/04/06 02:02:44;;;;;;;1.63;1.17;;;;;;;;;;5016273;28;20306;-40
2023/04/06 02:05:20;;;;;;;3.07;1.43;;;;;;;;;;5016066;28;20259;-40
2023/04/06 02:07:47;;;;;;;1.43;1.17;;;;;;;;;;5015231;28;20205;-40
2023/04/06 02:10:19;;;;;;;2.37;1.37;;;;;;;;;;5016552;28;20189;-39
2023/04/06 02:12:46;;;;;;;2.33;1.47;;;;;;;;;;5015738;28;20255;-40
2023/04/06 02:15:20;;;;;;;1.67;1.20;;;;;;;;;;5016210;28;20201;-40
2023/04/06 02:17:47;;;;;;;1.20;1.10;;;;;;;;;;5015704;28;20211;-40
2023/04/06 02:20:14;;;;;;;1.07;1.00;;;;;;;;;;5033650;28;20204;-40
2023/04/06 02:22:43;;;;;;;2.97;1.43;;;;;;;;;;5015984;28;20205;-40
2023/04/06 02:25:10;;;;;;;1.63;1.00;;;;;;;;;;5033495;28;20212;-40
2023/04/06 02:27:38;;;;;;;1.80;1.50;;;;;;;;;;5033539;28;20307;-41
2023/04/06 02:30:06;;;;;;;2.80;1.77;;;;;;;;;;5033518;28;20241;-40
2023/04/06 02:32:33;;;;;;;2.20;1.30;;;;;;;;;;5015702;28;20707;-40
2023/04/06 02:35:01;;;;;;;3.07;1.67;;;;;;;;;;5015628;28;20204;-40
2023/04/06 02:37:30;;;;;;;1.27;1.17;;;;;;;;;;5033694;28;20205;-40
2023/04/06 02:39:58;;;;;;;2.77;1.60;;;;;;;;;;5015831;28;20209;-39
2023/04/06 02:42:27;;;;;;;2.33;1.80;;;;;;;;;;5015596;28;20208;-40
2023/04/06 02:44:54;;;;;;;2.07;1.10;;;;;;;;;;5015648;28;20197;-40
2023/04/06 02:47:25;;;;;;;3.33;1.93;;;;;;;;;;5015520;28;20236;-40
2023/04/06 02:49:52;;;;;;;1.83;1.70;;;;;;;;;;5015576;28;20196;-39
2023/04/06 02:52:19;;;;;;;2.63;1.43;;;;;;;;;;5032018;28;20693;-39
2023/04/06 02:54:47;;;;;;;1.30;1.10;;;;;;;;;;5033347;28;20204;-40
2023/04/06 02:57:21;;;;;;;1.20;1.07;;;;;;;;;;5048678;28;20612;-40
2023/04/06 02:59:48;;;;;;;2.73;1.47;;;;;;;;;;5048302;28;20197;-39
2023/04/06 03:02:23;;;;;;;1.37;1.27;;;;;;;;;;5015613;28;20219;-40
2023/04/06 03:04:54;;;;;;;1.17;1.10;;;;;;;;;;5015380;28;20185;-40
2023/04/06 03:07:30;;;;;;;2.10;1.23;;;;;;;;;;5015809;28;20196;-40
2023/04/06 03:09:57;;;;;;;1.63;1.30;;;;;;;;;;5015329;28;20212;-39
2023/04/06 03:12:24;;;;;;;1.80;1.53;;;;;;;;;;5015124;28;20695;-39
2023/04/06 03:15:20;;;;;;;2.00;1.50;;;;;;;;;;4972064;28;20206;-40
2023/04/06 03:17:53;;;;;;;1.40;1.30;;;;;;;;;;4956461;28;20303;-39
2023/04/06 03:20:43;;;;;;;2.17;1.10;;;;;;;;;;4959916;28;20206;-39
2023/04/06 03:23:10;;;;;;;2.30;1.40;;;;;;;;;;4975598;28;20210;-39
2023/04/06 03:25:41;;;;;;;4.50;1.50;;;;;;;;;;4959520;28;20561;-40
2023/04/06 03:28:12;;;;;;;2.37;1.33;;;;;;;;;;4975378;28;20207;-40
2023/04/06 03:30:49;;;;;;;2.20;1.30;;;;;;;;;;4959137;28;20234;-40
2023/04/06 03:33:22;;;;;;;2.00;1.77;;;;;;;;;;4974999;28;20394;-40
2023/04/06 03:35:53;;;;;;;2.20;1.67;;;;;;;;;;4974496;28;20206;-40
2023/04/06 03:38:23;;;;;;;1.27;1.03;;;;;;;;;;4974980;28;20221;-40
2023/04/06 03:40:51;;;;;;;1.17;1.03;;;;;;;;;;4975041;28;20214;-42
2023/04/06 03:43:22;;;;;;;1.30;1.20;;;;;;;;;;4975221;28;20226;-40
2023/04/06 03:45:50;;;;;;;1.23;1.10;;;;;;;;;;4974711;28;20211;-40
2023/04/06 03:48:17;;;;;;;2.50;1.83;;;;;;;;;;4974869;28;20215;-40
2023/04/06 03:50:45;;;;;;;2.40;1.47;;;;;;;;;;4961983;28;21021;-39
2023/04/06 03:53:12;;;;;;;1.37;1.20;;;;;;;;;;5018137;28;20239;-40
2023/04/06 03:55:40;;;;;;;3.70;2.27;;;;;;;;;;5018162;28;20200;-41
2023/04/06 03:58:07;;;;;;;3.47;1.60;;;;;;;;;;5018169;28;20204;-40
2023/04/06 04:00:34;;;;;;;1.37;1.27;;;;;;;;;;5017873;28;20613;-41
2023/04/06 04:03:02;;;;;;;2.27;1.40;;;;;;;;;;5035779;28;20292;-40
2023/04/06 04:05:29;;;;;;;2.40;1.80;;;;;;;;;;5035596;28;20200;-39
2023/04/06 04:07:57;;;;;;;1.97;1.67;;;;;;;;;;5030608;28;20228;-40
2023/04/06 04:10:26;;;;;;;2.20;1.40;;;;;;;;;;5020883;28;20240;-40
2023/04/06 04:12:53;;;;;;;1.30;1.20;;;;;;;;;;4995992;28;20724;-40
2023/04/06 04:15:21;;;;;;;5.13;1.83;;;;;;;;;;5024213;28;20228;-39
2023/04/06 04:17:49;;;;;;;2.07;1.57;;;;;;;;;;5025438;28;20311;-43
2023/04/06 04:20:17;;;;;;;2.50;1.60;;;;;;;;;;5019109;28;20237;-41
2023/04/06 04:22:44;;;;;;;2.97;1.80;;;;;;;;;;5022091;28;20229;-40
2023/04/06 04:25:11;;;;;;;6.27;1.77;;;;;;;;;;5016969;28;20624;-39
2023/04/06 04:27:44;;;;;;;2.50;2.30;;;;;;;;;;5032987;28;20244;-39
2023/04/06 04:30:12;;;;;;;1.57;1.40;;;;;;;;;;5033448;28;20240;-43
2023/04/06 04:32:39;;;;;;;3.00;1.60;;;;;;;;;;5033948;28;20234;-40
2023/04/06 04:35:09;;;;;;;2.13;1.37;;;;;;;;;;5033945;28;20227;-40
2023/04/06 04:37:40;;;;;;;2.30;1.70;;;;;;;;;;5015273;28;20647;-40
2023/04/06 04:40:09;;;;;;;3.90;2.47;;;;;;;;;;5016748;28;20232;-40
2023/04/06 04:42:46;;;;;;;2.60;2.20;;;;;;;;;;5016818;28;20230;-43
2023/04/06 04:45:21;;;;;;;3.03;1.80;;;;;;;;;;5017118;28;20219;-40
2023/04/06 04:47:49;;;;;;;1.77;1.17;;;;;;;;;;5016120;28;20232;-42
2023/04/06 04:50:18;;;;;;;3.03;1.67;;;;;;;;;;5015607;28;20229;-39
2023/04/06 04:52:48;;;;;;;2.13;1.80;;;;;;;;;;5014298;28;20251;-39
2023/04/06 04:55:24;;;;;;;2.03;1.50;;;;;;;;;;5034234;28;20704;-40
2023/04/06 04:57:54;;;;;;;3.53;1.50;;;;;;;;;;5016066;28;20247;-40
2023/04/06 05:00:30;;;;;;;2.07;1.53;;;;;;;;;;5015351;28;20225;-41
2023/04/06 05:03:00;;;;;;;2.40;1.63;;;;;;;;;;5030964;28;20626;-42
2023/04/06 05:05:33;;;;;;;1.60;1.50;;;;;;;;;;5032978;28;20228;-47
2023/04/06 05:08:01;;;;;;;2.00;1.73;;;;;;;;;;5014632;28;20236;-41
2023/04/06 05:10:39;;;;;;;5.47;1.73;;;;;;;;;;5015261;28;20228;-40
2023/04/06 05:13:07;;;;;;;2.87;1.77;;;;;;;;;;5015634;28;20233;-40
2023/04/06 05:15:37;;;;;;;3.90;1.90;;;;;;;;;;5014114;28;20231;-40
2023/04/06 05:18:12;;;;;;;2.13;1.70;;;;;;;;;;5014611;28;20229;-41
2023/04/06 05:20:40;;;;;;;2.60;1.53;;;;;;;;;;5029789;28;20209;-39
2023/04/06 05:23:07;;;;;;;3.23;2.10;;;;;;;;;;5014535;28;20311;-40
2023/04/06 05:25:35;;;;;;;2.30;1.67;;;;;;;;;;5014300;28;20232;-41
2023/04/06 05:28:14;;;;;;;3.97;1.67;;;;;;;;;;5014886;28;20278;-44
2023/04/06 05:30:42;;;;;;;4.10;2.10;;;;;;;;;;5011477;28;20244;-40
2023/04/06 05:33:11;;;;;;;1.60;1.33;;;;;;;;;;5014075;28;20270;-40
2023/04/06 05:36:00;;;;;;;2.00;1.73;;;;;;;;;;5018930;28;20239;-41
2023/04/06 05:38:28;;;;;;;2.57;1.97;;;;;;;;;;5015168;28;20256;-50
2023/04/06 05:40:59;;;;;;;4.53;1.87;;;;;;;;;;5014968;28;20232;-41
2023/04/06 05:43:30;;;;;;;1.40;1.30;;;;;;;;;;5028528;28;20216;-48
2023/04/06 05:46:00;;;;;;;1.70;1.60;;;;;;;;;;5015010;28;20361;-41
2023/04/06 05:48:27;;;;;;;2.10;1.43;;;;;;;;;;5015146;28;20307;-41
2023/04/06 05:50:54;;;;;;;3.30;1.70;;;;;;;;;;5029167;28;20220;-44
2023/04/06 05:53:29;;;;;;;4.80;1.17;;;;;;;;;;5014673;28;20228;-42
2023/04/06 05:56:03;;;;;;;2.23;1.40;;;;;;;;;;5015087;28;20232;-41
2023/04/06 05:58:30;;;;;;;1.53;1.43;;;;;;;;;;5014951;28;20263;-45
2023/04/06 06:01:00;;;;;;;2.30;1.63;;;;;;;;;;5015351;28;20232;-41
2023/04/06 06:03:35;;;;;;;2.97;1.30;;;;;;;;;;5015344;28;20236;-41
2023/04/06 06:06:03;;;;;;;2.20;1.27;;;;;;;;;;5032048;28;20756;-43
2023/04/06 06:08:50;;;;;;;2.27;1.73;;;;;;;;;;5029121;28;20224;-40
2023/04/06 06:11:18;;;;;;;1.50;1.40;;;;;;;;;;5021253;28;20220;-50
2023/04/06 06:13:47;;;;;;;2.20;1.47;;;;;;;;;;5003502;28;20295;-43
2023/04/06 06:16:15;;;;;;;1.50;1.40;;;;;;;;;;5015181;28;20229;-45
2023/04/06 06:18:46;;;;;;;2.23;1.37;;;;;;;;;;5021882;28;20251;-44
2023/04/06 06:21:14;;;;;;;2.10;1.30;;;;;;;;;;5014965;28;20228;-44
2023/04/06 06:23:42;;;;;;;1.90;1.63;;;;;;;;;;5030635;28;20221;-47
2023/04/06 06:26:13;;;;;;;2.17;1.57;;;;;;;;;;5030195;28;20973;-47
2023/04/06 06:28:40;;;;;;;2.37;1.63;;;;;;;;;;5013039;28;20724;-46
2023/04/06 06:31:10;;;;;;;2.47;1.40;;;;;;;;;;5010238;28;20229;-44
2023/04/06 06:33:37;;;;;;;1.37;1.20;;;;;;;;;;5011126;28;20765;-45
2023/04/06 06:36:05;;;;;;;2.37;2.10;;;;;;;;;;5014017;28;20231;-48
2023/04/06 06:38:32;;;;;;;1.80;1.60;;;;;;;;;;5026164;28;20614;-43
2023/04/06 06:40:59;;;;;;;1.30;1.20;;;;;;;;;;5004143;28;20803;-44
2023/04/06 06:43:30;;;;;;;2.63;1.97;;;;;;;;;;5041415;28;20224;-46
2023/04/06 06:46:01;;;;;;;1.70;1.50;;;;;;;;;;5027982;28;20571;-46
2023/04/06 06:48:28;;;;;;;1.87;1.40;;;;;;;;;;5029613;28;20735;-44
2023/04/06 06:50:56;;;;;;;2.37;1.73;;;;;;;;;;5012519;28;20621;-45
2023/04/06 06:53:24;;;;;;;2.27;1.60;;;;;;;;;;5031598;28;20232;-43
2023/04/06 06:55:51;;;;;;;1.87;1.50;;;;;;;;;;5016863;28;20705;-43
2023/04/06 06:58:21;;;;;;;2.00;1.40;;;;;;;;;;5017600;28;20224;-43
2023/04/06 07:00:48;;;;;;;2.23;1.23;;;;;;;;;;5016967;28;20677;-44
2023/04/06 07:03:15;;;;;;;3.73;1.40;;;;;;;;;;5016427;28;20236;-45
2023/04/06 07:05:53;;;;;;;1.93;1.30;;;;;;;;;;5016810;28;20224;-44
2023/04/06 07:08:22;;;;;;;1.90;1.40;;;;;;;;;;5013929;28;20795;-44
2023/04/06 07:10:52;;;;;;;1.63;1.53;;;;;;;;;;5016597;28;20220;-43
2023/04/06 07:13:23;;;;;;;2.53;1.90;;;;;;;;;;5017126;28;20294;-44
2023/04/06 07:15:55;;;;;;;1.50;1.40;;;;;;;;;;5046697;28;20542;-44
2023/04/06 07:18:22;;;;;;;1.80;1.33;;;;;;;;;;5016750;28;20227;-45
2023/04/06 07:20:50;;;;;;;1.93;1.43;;;;;;;;;;5045904;28;20235;-44
2023/04/06 07:23:17;;;;;;;2.37;1.60;;;;;;;;;;5016524;28;20225;-44
2023/04/06 07:25:45;;;;;;;1.73;1.27;;;;;;;;;;5016464;28;20221;-46
2023/04/06 07:28:12;;;;;;;1.80;1.30;;;;;;;;;;5042007;28;20264;-45
2023/04/06 07:30:40;;;;;;;1.37;1.20;;;;;;;;;;5016195;28;20232;-49
2023/04/06 07:33:09;;;;;;;1.73;1.10;;;;;;;;;;5016538;28;20698;-45
2023/04/06 07:35:37;;;;;;;1.40;1.30;;;;;;;;;;5016302;28;20282;-44
2023/04/06 07:38:05;;;;;;;1.90;1.47;;;;;;;;;;5017281;28;20756;-44
2023/04/06 07:40:33;;;;;;;1.40;1.30;;;;;;;;;;5014577;28;20236;-43
2023/04/06 07:43:01;;;;;;;1.27;1.17;;;;;;;;;;5015465;28;20205;-48
2023/04/06 07:45:29;;;;;;;4.07;1.67;;;;;;;;;;5014676;28;20551;-43
2023/04/06 07:47:57;;;;;;;1.37;1.23;;;;;;;;;;5015157;28;20256;-47
2023/04/06 07:50:26;;;;;;;3.83;1.80;;;;;;;;;;5018598;28;20200;-43
2023/04/06 07:52:54;;;;;;;1.70;1.47;;;;;;;;;;5018385;28;20211;-43
2023/04/06 07:55:22;;;;;;;1.03;0.97;;;;;;;;;;5018318;28;20262;-44
2023/04/06 07:57:50;;;;;;;2.27;1.47;;;;;;;;;;5036021;28;20295;-43
2023/04/06 08:00:18;;;;;;;1.77;1.23;;;;;;;;;;5035612;28;20208;-44
2023/04/06 08:02:45;;;;;;;2.30;1.33;;;;;;;;;;5035468;28;20231;-44
2023/04/06 08:05:12;;;;;;;1.40;1.30;;;;;;;;;;5034547;28;20279;-44
2023/04/06 08:07:39;;;;;;;1.23;1.10;;;;;;;;;;5035906;28;20211;-43
2023/04/06 08:10:07;;;;;;;1.60;1.17;;;;;;;;;;5034977;28;20201;-43
2023/04/06 08:12:34;;;;;;;1.30;1.20;;;;;;;;;;5043039;28;20279;-43
2023/04/06 08:15:03;;;;;;;5.43;2.00;;;;;;;;;;5033846;28;20220;-43
2023/04/06 08:17:32;;;;;;;1.70;1.47;;;;;;;;;;5033961;28;20258;-45
2023/04/06 08:19:59;;;;;;;12.90;5.37;;;;;;;;;;5031194;28;20255;-43
2023/04/06 08:22:27;;;;;;;2.17;1.70;;;;;;;;;;5036532;28;20194;-45
2023/04/06 08:24:54;;;;;;;8.70;3.70;;;;;;;;;;5033970;28;20216;-46
2023/04/06 08:27:21;;;;;;;2.60;2.07;;;;;;;;;;5034123;28;20283;-48
2023/04/06 08:29:49;;;;;;;6.07;3.10;;;;;;;;;;5033793;28;20224;-43
2023/04/06 08:32:16;;;;;;;3.30;1.90;;;;;;;;;;5033550;28;20201;-43
2023/04/06 08:34:43;;;;;;;3.07;1.70;;;;;;;;;;5033841;28;20220;-47
2023/04/06 08:37:10;;;;;;;2.43;1.47;;;;;;;;;;5035208;28;20529;-46
2023/04/06 08:39:37;;;;;;;1.93;1.73;;;;;;;;;;5034577;28;20204;-46
2023/04/06 08:42:11;;;;;;;3.93;2.00;;;;;;;;;;5034068;28;20303;-43
2023/04/06 08:44:40;;;;;;;2.00;1.43;;;;;;;;;;5034790;28;20656;-44
2023/04/06 08:47:08;;;;;;;1.90;1.53;;;;;;;;;;5030126;28;20240;-44
2023/04/06 08:49:37;;;;;;;2.67;1.93;;;;;;;;;;5015160;28;20205;-43
2023/04/06 08:52:08;;;;;;;2.43;1.50;;;;;;;;;;5030218;28;20200;-44
2023/04/06 08:54:35;;;;;;;1.70;1.60;;;;;;;;;;5032978;28;20771;-43
2023/04/06 08:57:03;;;;;;;3.37;2.63;;;;;;;;;;5029838;28;20201;-44
2023/04/06 08:59:31;;;;;;;3.43;2.30;;;;;;;;;;5014831;28;20209;-43
2023/04/06 09:01:59;;;;;;;2.60;2.07;;;;;;;;;;5027273;28;20525;-44
2023/04/06 09:04:26;;;;;;;4.23;2.07;;;;;;;;;;5033024;28;20208;-44
2023/04/06 09:06:54;;;;;;;2.03;1.83;;;;;;;;;;5032811;28;20199;-44
2023/04/06 09:09:22;;;;;;;1.77;1.67;;;;;;;;;;5033325;28;20204;-42
2023/04/06 09:11:51;;;;;;;3.77;2.03;;;;;;;;;;5032868;28;20220;-44
2023/04/06 09:14:38;;;;;;;2.77;2.13;;;;;;;;;;5032949;28;20322;-46
2023/04/06 09:17:05;;;;;;;2.93;2.10;;;;;;;;;;5031625;28;20193;-43
2023/04/06 09:19:33;;;;;;;2.57;1.87;;;;;;;;;;5031960;28;20197;-43
2023/04/06 09:22:04;;;;;;;3.67;2.07;;;;;;;;;;5032770;28;20657;-43
2023/04/06 09:24:45;;;;;;;5.33;2.43;;;;;;;;;;5033440;28;20189;-41
2023/04/06 09:27:12;;;;;;;3.70;2.47;;;;;;;;;;5016042;28;20196;-42
2023/04/06 09:29:43;;;;;;;3.50;1.80;;;;;;;;;;5032496;28;20201;-48
2023/04/06 09:32:11;;;;;;;3.63;2.17;;;;;;;;;;5031772;28;20205;-44
2023/04/06 09:34:39;;;;;;;3.27;2.23;;;;;;;;;;5032885;28;20227;-47
2023/04/06 09:37:14;;;;;;;3.37;2.53;;;;;;;;;;5032540;28;20192;-42
2023/04/06 09:39:41;;;;;;;3.83;2.37;;;;;;;;;;5032547;28;20188;-44
2023/04/06 09:42:08;;;;;;;2.27;1.87;;;;;;;;;;5032312;28;20649;-43
2023/04/06 09:44:35;;;;;;;4.87;3.27;;;;;;;;;;5032342;28;20208;-43
2023/04/06 09:47:07;;;;;;;3.27;2.57;;;;;;;;;;5031376;28;20247;-44
2023/04/06 09:49:35;;;;;;;2.53;1.90;;;;;;;;;;5032591;28;20189;-43
2023/04/06 09:52:04;;;;;;;3.93;2.43;;;;;;;;;;5032034;28;20232;-45
2023/04/06 09:54:32;;;;;;;3.00;1.77;;;;;;;;;;5032374;28;20224;-47
2023/04/06 09:57:38;;;;;;;3.63;2.40;;;;;;;;;;5032156;28;20636;-43
2023/04/06 10:00:11;;;;;;;4.67;3.03;;;;;;;;;;5007432;28;20228;-43
2023/04/06 10:02:56;;;;;;;4.40;2.37;;;;;;;;;;5029705;28;20197;-44
2023/04/06 10:05:30;;;;;;;10.67;3.13;;;;;;;;;;5032254;28;20201;-43
2023/04/06 10:08:00;;;;;;;2.40;1.80;;;;;;;;;;5031277;28;20243;-44
2023/04/06 10:10:28;;;;;;;4.30;3.00;;;;;;;;;;5031467;28;20590;-43
2023/04/06 10:12:56;;;;;;;6.70;3.10;;;;;;;;;;5031879;28;20647;-44
2023/04/06 10:15:24;;;;;;;11.43;5.07;;;;;;;;;;5032174;28;20212;-44
2023/04/06 10:17:51;;;;;;;4.70;2.67;;;;;;;;;;5032172;28;20197;-43
2023/04/06 10:20:40;;;;;;;10.97;4.80;;;;;;;;;;5031932;28;20203;-44
2023/04/06 10:23:16;;;;;;;5.40;3.40;;;;;;;;;;5029596;28;20193;-43
2023/04/06 10:25:54;;;;;;;10.07;3.57;;;;;;;;;;5032175;28;20243;-45
2023/04/06 10:28:21;;;;;;;19.63;7.27;;;;;;;;;;5030547;28;20195;-44
2023/04/06 10:30:49;;;;;;;19.23;6.60;;;;;;;;;;5031904;28;20224;-44
2023/04/06 10:33:18;;;;;;;5.33;2.77;;;;;;;;;;5032153;28;20204;-44
2023/04/06 10:35:45;;;;;;;11.10;4.80;;;;;;;;;;5014654;28;20244;-44
2023/04/06 10:38:20;;;;;;;4.67;2.80;;;;;;;;;;5032537;28;20546;-44
2023/04/06 10:40:48;;;;;;;4.43;2.57;;;;;;;;;;5031658;28;20684;-45
2023/04/06 10:43:21;;;;;;;4.83;2.50;;;;;;;;;;5031624;28;20576;-43
2023/04/06 10:45:56;;;;;;;4.37;1.93;;;;;;;;;;5014547;28;20216;-43
2023/04/06 10:48:24;;;;;;;3.93;2.47;;;;;;;;;;5031343;28;20246;-44
2023/04/06 10:50:52;;;;;;;4.07;2.43;;;;;;;;;;5031844;28;20227;-46
2023/04/06 10:53:24;;;;;;;4.57;3.07;;;;;;;;;;5031637;28;20205;-44
2023/04/06 10:55:55;;;;;;;4.27;2.73;;;;;;;;;;5031805;28;20247;-49
2023/04/06 10:58:27;;;;;;;3.83;2.63;;;;;;;;;;5029482;28;20271;-44
2023/04/06 11:00:55;;;;;;;2.47;2.20;;;;;;;;;;5031649;28;20646;-44
2023/04/06 11:03:22;;;;;;;3.73;2.83;;;;;;;;;;5029104;28;20567;-46
2023/04/06 11:05:51;;;;;;;5.63;2.57;;;;;;;;;;5031744;28;20201;-44
2023/04/06 11:08:29;;;;;;;3.50;2.33;;;;;;;;;;5031467;28;20656;-45
2023/04/06 11:11:18;;;;;;;2.00;1.80;;;;;;;;;;5014016;28;20181;-43
2023/04/06 11:13:45;;;;;;;2.87;2.20;;;;;;;;;;5031505;28;20185;-43
2023/04/06 11:16:31;;;;;;;6.00;2.73;;;;;;;;;;5031700;28;20235;-47
2023/04/06 11:19:00;;;;;;;3.67;1.97;;;;;;;;;;5030992;28;20195;-44
2023/04/06 11:21:47;;;;;;;3.57;2.47;;;;;;;;;;5031201;28;20193;-44
2023/04/06 11:24:20;;;;;;;3.67;2.20;;;;;;;;;;5031600;28;20254;-43
2023/04/06 11:27:00;;;;;;;2.80;2.10;;;;;;;;;;5031316;28;20657;-44
2023/04/06 11:29:29;;;;;;;2.67;1.97;;;;;;;;;;5030613;28;20187;-43
2023/04/06 11:32:01;;;;;;;3.73;2.63;;;;;;;;;;5031693;28;20208;-42
2023/04/06 11:34:30;;;;;;;3.97;1.83;;;;;;;;;;5031187;28;20212;-44
2023/04/06 11:37:02;;;;;;;2.57;1.90;;;;;;;;;;5031465;28;20193;-43
2023/04/06 11:39:30;;;;;;;3.23;2.07;;;;;;;;;;5032815;28;20189;-43
2023/04/06 11:41:59;;;;;;;5.33;2.53;;;;;;;;;;5034968;28;20200;-43
2023/04/06 11:44:48;;;;;;;3.73;2.47;;;;;;;;;;5034925;28;20223;-47
2023/04/06 11:47:16;;;;;;;4.60;1.83;;;;;;;;;;5029352;28;20197;-44
2023/04/06 11:49:47;;;;;;;5.43;2.57;;;;;;;;;;5034732;28;20205;-44
2023/04/06 11:52:15;;;;;;;5.17;2.70;;;;;;;;;;5032608;28;20189;-44
2023/04/06 11:54:42;;;;;;;4.87;2.80;;;;;;;;;;5034685;28;20282;-44
2023/04/06 11:57:10;;;;;;;3.90;2.43;;;;;;;;;;5035908;28;20200;-44
2023/04/06 11:59:37;;;;;;;4.07;2.80;;;;;;;;;;5035625;28;20205;-44
2023/04/06 12:02:05;;;;;;;3.83;2.20;;;;;;;;;;5038350;28;20258;-43
2023/04/06 12:04:32;;;;;;;4.47;3.00;;;;;;;;;;5036796;28;20201;-44
2023/04/06 12:06:59;;;;;;;7.23;3.83;;;;;;;;;;5034191;28;20216;-44
2023/04/06 12:09:27;;;;;;;5.33;2.87;;;;;;;;;;5034351;28;20263;-44
2023/04/06 12:11:54;;;;;;;6.20;3.63;;;;;;;;;;5034033;28;20243;-44
2023/04/06 12:14:21;;;;;;;3.80;2.77;;;;;;;;;;5034118;28;20197;-44
2023/04/06 12:16:49;;;;;;;4.07;2.90;;;;;;;;;;5034256;28;20248;-47
2023/04/06 12:19:16;;;;;;;5.63;3.10;;;;;;;;;;5031043;28;20197;-44
2023/04/06 12:21:43;;;;;;;4.40;2.97;;;;;;;;;;5034145;28;20189;-43
2023/04/06 12:24:10;;;;;;;4.87;3.40;;;;;;;;;;5033824;28;20246;-44
2023/04/06 12:26:37;;;;;;;6.53;3.60;;;;;;;;;;5031771;28;20696;-43
2023/04/06 12:29:06;;;;;;;4.47;3.37;;;;;;;;;;5034654;28;20208;-44
2023/04/06 12:31:35;;;;;;;4.87;2.83;;;;;;;;;;5034963;28;20228;-44
2023/04/06 12:34:03;;;;;;;6.43;3.43;;;;;;;;;;5027635;28;20216;-44
2023/04/06 12:36:31;;;;;;;5.53;3.97;;;;;;;;;;5032725;28;20724;-44
2023/04/06 12:38:58;;;;;;;4.30;2.90;;;;;;;;;;5031422;28;20232;-44
2023/04/06 12:41:27;;;;;;;4.53;3.37;;;;;;;;;;5028245;28;20225;-44
2023/04/06 12:43:55;;;;;;;5.77;3.97;;;;;;;;;;5032292;28;20315;-44
2023/04/06 12:46:23;;;;;;;8.33;4.20;;;;;;;;;;5034286;28;20251;-44
2023/04/06 12:48:53;;;;;;;4.50;2.63;;;;;;;;;;5033446;28;20240;-43
2023/04/06 12:51:21;;;;;;;6.40;3.43;;;;;;;;;;5034180;28;20612;-44
2023/04/06 12:53:48;;;;;;;6.07;3.17;;;;;;;;;;5028834;28;20221;-49
2023/04/06 12:56:17;;;;;;;4.70;3.20;;;;;;;;;;5027336;28;20366;-44
2023/04/06 12:58:45;;;;;;;5.67;2.87;;;;;;;;;;5034026;28;20295;-45
2023/04/06 13:01:13;;;;;;;4.70;3.07;;;;;;;;;;5034318;28;20228;-44
2023/04/06 13:03:40;;;;;;;5.77;3.87;;;;;;;;;;5033496;28;20635;-44
2023/04/06 13:06:08;;;;;;;2.73;2.40;;;;;;;;;;5034222;28;20224;-44
2023/04/06 13:08:37;;;;;;;5.30;3.90;;;;;;;;;;5033832;28;20255;-44
2023/04/06 13:11:08;;;;;;;4.20;2.73;;;;;;;;;;5033583;28;20224;-44
2023/04/06 13:13:35;;;;;;;3.60;2.57;;;;;;;;;;5033961;28;20297;-45
2023/04/06 13:16:12;;;;;;;5.80;3.57;;;;;;;;;;5033827;28;20231;-44
2023/04/06 13:18:39;;;;;;;9.30;4.50;;;;;;;;;;5015872;28;20224;-48
2023/04/06 13:21:07;;;;;;;15.97;5.77;;;;;;;;;;5033912;28;20227;-44
2023/04/06 13:23:35;;;;;;;14.67;5.00;;;;;;;;;;5033659;28;20220;-44
2023/04/06 13:26:07;;;;;;;16.43;7.30;;;;;;;;;;5033485;28;20230;-43
2023/04/06 13:28:36;;;;;;;9.33;5.17;;;;;;;;;;5033172;28;20271;-44
2023/04/06 13:31:04;;;;;;;9.43;4.90;;;;;;;;;;5033157;28;20233;-44
2023/04/06 13:33:32;;;;;;;8.20;4.17;;;;;;;;;;5032172;28;20244;-44
2023/04/06 13:36:00;;;;;;;10.87;4.87;;;;;;;;;;5032846;28;20245;-44
2023/04/06 13:38:27;;;;;;;5.03;3.40;;;;;;;;;;5033681;28;20229;-42
2023/04/06 13:40:55;;;;;;;7.03;3.73;;;;;;;;;;5032912;28;20217;-45
2023/04/06 13:43:24;;;;;;;8.83;3.50;;;;;;;;;;5032468;28;20209;-44
2023/04/06 13:45:53;;;;;;;4.97;3.00;;;;;;;;;;5031968;28;20223;-46
2023/04/06 13:48:21;;;;;;;5.47;3.00;;;;;;;;;;5025710;28;20291;-44
2023/04/06 13:50:49;;;;;;;6.50;3.90;;;;;;;;;;5032494;28;20625;-45
2023/04/06 13:53:16;;;;;;;4.77;2.83;;;;;;;;;;5033213;28;20240;-44
2023/04/06 13:55:43;;;;;;;5.30;3.43;;;;;;;;;;5033146;28;20232;-47
2023/04/06 13:58:10;;;;;;;8.93;3.37;;;;;;;;;;5031630;28;20221;-44
2023/04/06 14:00:38;;;;;;;5.53;3.87;;;;;;;;;;5031004;28;20220;-48
2023/04/06 14:03:05;;;;;;;6.57;3.93;;;;;;;;;;5029791;28;20224;-47
2023/04/06 14:05:33;;;;;;;7.17;4.00;;;;;;;;;;5031012;28;20213;-44
2023/04/06 14:08:01;;;;;;;3.87;2.83;;;;;;;;;;5031727;28;20228;-45
2023/04/06 14:10:28;;;;;;;5.20;3.30;;;;;;;;;;5031576;28;20217;-44
2023/04/06 14:12:56;;;;;;;5.30;2.93;;;;;;;;;;5031608;28;20227;-47
2023/04/06 14:15:23;;;;;;;4.20;2.93;;;;;;;;;;5031012;28;20247;-48
2023/04/06 14:17:51;;;;;;;7.13;3.43;;;;;;;;;;5031339;28;20726;-44
2023/04/06 14:20:19;;;;;;;4.37;3.67;;;;;;;;;;5032641;28;20228;-45
2023/04/06 14:22:46;;;;;;;5.03;2.97;;;;;;;;;;5032155;28;20229;-50
2023/04/06 14:25:15;;;;;;;3.43;2.70;;;;;;;;;;5031132;28;20228;-44
2023/04/06 14:27:43;;;;;;;5.57;3.87;;;;;;;;;;5051528;28;20243;-44
2023/04/06 14:30:11;;;;;;;4.93;2.93;;;;;;;;;;5028260;28;20243;-44
2023/04/06 14:32:38;;;;;;;5.77;3.53;;;;;;;;;;5031360;28;20221;-46
2023/04/06 14:35:05;;;;;;;6.10;3.43;;;;;;;;;;5032124;28;20298;-45
2023/04/06 14:37:34;;;;;;;5.20;3.33;;;;;;;;;;5032405;28;20240;-44
2023/04/06 14:40:05;;;;;;;5.47;4.00;;;;;;;;;;5032519;28;20237;-46
2023/04/06 14:42:32;;;;;;;6.50;3.20;;;;;;;;;;5031275;28;20244;-46
2023/04/06 14:44:59;;;;;;;6.20;3.33;;;;;;;;;;5028455;28;20228;-45
2023/04/06 14:47:26;;;;;;;4.57;2.70;;;;;;;;;;5031182;28;20224;-44
2023/04/06 14:49:53;;;;;;;4.80;3.47;;;;;;;;;;5032222;28;20613;-44
2023/04/06 14:52:20;;;;;;;4.60;3.13;;;;;;;;;;5032416;28;20228;-44
2023/04/06 14:54:47;;;;;;;5.53;4.03;;;;;;;;;;5031876;28;20254;-46
2023/04/06 14:57:14;;;;;;;4.47;3.00;;;;;;;;;;5018384;28;20328;-43
2023/04/06 14:59:42;;;;;;;5.80;4.00;;;;;;;;;;5012946;28;20225;-44